Bookmark and Share
Track history (hours):
 

Dominia

Last reported at 2014-Apr-16 15:32 UTC. Time now 2014-Apr-18 20:58 UTC.
Position N 43°58' E 035°12'.

Length 176 m; draft 7.4 m.

Type: Ship (hazmat cat A). MMSI: 247273400.

NotesDate/timePositionNaut miles runAvg speedWind from/ knotsBaromVisibWave heightAir tempDewpointWater temp
2014-Apr-16 15:32N 43°58' E 035°12'1312.5
2014-Apr-16 14:29N 43°57' E 034°54'1212.4
2014-Apr-16 13:31N 43°55' E 034°38'1212.4
2014-Apr-16 12:32N 43°53' E 034°21'  
2014-Apr-10 06:28N 39°42' E 025°45'11913.3
2014-Apr-09 21:33N 37°56' E 024°38'1212.3
2014-Apr-09 20:32N 37°48' E 024°26'1712.3
2014-Apr-09 19:11N 37°36' E 024°11'812.6
2014-Apr-09 18:33N 37°36' E 024°01'1312.9
2014-Apr-09 17:33N 37°39' E 023°45'1212.0
2014-Apr-09 16:33N 37°49' E 023°37'1212.0
2014-Apr-09 15:33N 37°51' E 023°22'11 0.3
2014-Apr-07 23:04N 37°54' E 023°09'1010.1
2014-Apr-07 22:04N 37°52' E 023°21'611.2
2014-Apr-07 21:33N 37°50' E 023°28'4 3.7
2014-Apr-07 20:34N 37°53' E 023°31'0 0.1
2014-Apr-07 19:31N 37°53' E 023°31'0 0.1
2014-Apr-07 17:31N 37°53' E 023°31'0 0.0
2014-Apr-07 16:31N 37°53' E 023°31'0 0.0
2014-Apr-07 15:31N 37°53' E 023°31'0 0.1
2014-Apr-07 14:25N 37°53' E 023°31'0 0.0
2014-Apr-07 13:31N 37°53' E 023°31'0 0.1
2014-Apr-07 12:25N 37°53' E 023°31'0 0.1
2014-Apr-07 11:31N 37°53' E 023°31'0 0.0
2014-Apr-07 10:25N 37°53' E 023°31'0 0.0
2014-Apr-07 09:25N 37°53' E 023°31'0 0.0
2014-Apr-07 08:28N 37°53' E 023°31'0 0.0
2014-Apr-07 07:31N 37°53' E 023°31'0 0.0
2014-Apr-07 06:31N 37°53' E 023°31'0 0.0
2014-Apr-07 05:31N 37°53' E 023°31'0 0.0
2014-Apr-07 04:31N 37°53' E 023°31'0 0.4
2014-Apr-07 03:33N 37°53' E 023°32'6 6.4
2014-Apr-07 02:33N 37°50' E 023°39'8 8.3
2014-Apr-07 01:33N 37°43' E 023°44'22 9.8
2014-Apr-06 23:21N 37°39' E 024°10'1412.5
2014-Apr-06 22:14N 37°49' E 024°23'912.8
2014-Apr-06 21:33N 37°54' E 024°32'  

Dump ship's entire track history

sailing weather and tide predictions

Dominia — ICFW — position and weather